Time;durP1;ratioP1;P1;durP2;ratioP2;P2;SDS_P1;SDS_P2;PMS_P1;PMS_P2;Temp;Humidity;BMP_temperature;BMP_pressure;BME280_temperature;BME280_humidity;BME280_pressure;Samples;Min_cycle;Max_cycle;Signal;HPM_P1;HPM_P2
2022/03/07 00:00:38;;;;;;;6.57;5.87;;;;;;;;;;4993086;28;20232;-53
2022/03/07 00:03:04;;;;;;;6.67;5.97;;;;;;;;;;4994919;28;20207;-53
2022/03/07 00:05:30;;;;;;;7.23;6.30;;;;;;;;;;4994609;28;22195;-52
2022/03/07 00:07:56;;;;;;;6.33;5.73;;;;;;;;;;4997526;28;20240;-54
2022/03/07 00:10:22;;;;;;;6.37;5.77;;;;;;;;;;5000428;28;20193;-53
2022/03/07 00:12:48;;;;;;;6.53;5.47;;;;;;;;;;4990668;28;20197;-53
2022/03/07 00:15:15;;;;;;;8.37;6.40;;;;;;;;;;4999356;28;20223;-53
2022/03/07 00:17:41;;;;;;;8.93;6.07;;;;;;;;;;4993846;28;20209;-53
2022/03/07 00:20:07;;;;;;;6.30;5.70;;;;;;;;;;4994898;28;20272;-53
2022/03/07 00:22:33;;;;;;;6.67;5.97;;;;;;;;;;4992842;28;20635;-53
2022/03/07 00:24:59;;;;;;;5.97;5.37;;;;;;;;;;4989099;28;20251;-52
2022/03/07 00:27:25;;;;;;;7.23;5.97;;;;;;;;;;4978632;28;20569;-53
2022/03/07 00:29:51;;;;;;;6.23;5.63;;;;;;;;;;4986032;28;20598;-53
2022/03/07 00:32:17;;;;;;;6.17;5.57;;;;;;;;;;4980795;28;20566;-53
2022/03/07 00:34:42;;;;;;;7.13;6.00;;;;;;;;;;4986630;28;20196;-53
2022/03/07 00:37:08;;;;;;;7.20;6.43;;;;;;;;;;4976912;28;20195;-53
2022/03/07 00:39:34;;;;;;;9.30;6.37;;;;;;;;;;4986287;28;20203;-53
2022/03/07 00:42:00;;;;;;;8.70;5.80;;;;;;;;;;4987080;28;20254;-52
2022/03/07 00:44:26;;;;;;;7.23;6.40;;;;;;;;;;4988605;28;20726;-52
2022/03/07 00:46:53;;;;;;;6.80;6.10;;;;;;;;;;4984179;28;20549;-51
2022/03/07 00:49:19;;;;;;;7.37;5.70;;;;;;;;;;4990413;28;20193;-52
2022/03/07 00:51:45;;;;;;;7.63;6.20;;;;;;;;;;4989425;28;20596;-54
2022/03/07 00:54:11;;;;;;;7.37;5.90;;;;;;;;;;4989868;28;20881;-53
2022/03/07 00:56:37;;;;;;;7.77;6.97;;;;;;;;;;4993150;28;20202;-53
2022/03/07 00:59:02;;;;;;;8.00;6.43;;;;;;;;;;4990462;28;20207;-53
2022/03/07 01:01:28;;;;;;;7.63;6.07;;;;;;;;;;4998068;28;20216;-53
2022/03/07 01:03:54;;;;;;;8.43;6.17;;;;;;;;;;4985313;28;20186;-53
2022/03/07 01:06:20;;;;;;;6.43;5.50;;;;;;;;;;4997212;28;21508;-53
2022/03/07 01:08:46;;;;;;;6.93;6.23;;;;;;;;;;4987988;28;20754;-54
2022/03/07 01:11:12;;;;;;;8.23;5.90;;;;;;;;;;4982929;28;20208;-52
2022/03/07 01:13:38;;;;;;;7.37;6.57;;;;;;;;;;4987483;28;20220;-52
2022/03/07 01:16:04;;;;;;;7.30;6.17;;;;;;;;;;4982252;28;20207;-53
2022/03/07 01:18:30;;;;;;;7.60;6.80;;;;;;;;;;4986663;28;20228;-53
2022/03/07 01:20:56;;;;;;;7.83;6.23;;;;;;;;;;4982401;28;20201;-52
2022/03/07 01:23:22;;;;;;;7.40;6.17;;;;;;;;;;4978594;28;20920;-53
2022/03/07 01:25:48;;;;;;;8.50;7.03;;;;;;;;;;4988715;28;20683;-53
2022/03/07 01:28:14;;;;;;;7.43;6.30;;;;;;;;;;4995884;28;20734;-53
2022/03/07 01:30:41;;;;;;;9.00;7.20;;;;;;;;;;4990712;28;20219;-53
2022/03/07 01:33:07;;;;;;;7.63;6.80;;;;;;;;;;4995280;28;20237;-53
2022/03/07 01:35:33;;;;;;;10.50;7.00;;;;;;;;;;4991623;28;20202;-52
2022/03/07 01:37:59;;;;;;;8.50;6.87;;;;;;;;;;4985643;28;20208;-54
2022/03/07 01:40:25;;;;;;;8.33;6.70;;;;;;;;;;4985380;28;20201;-53
2022/03/07 01:42:51;;;;;;;8.03;6.93;;;;;;;;;;4987386;28;20207;-53
2022/03/07 01:45:18;;;;;;;8.23;6.77;;;;;;;;;;4983927;28;20193;-53
2022/03/07 01:47:44;;;;;;;7.40;6.47;;;;;;;;;;4986208;28;20701;-53
2022/03/07 01:50:10;;;;;;;8.07;6.13;;;;;;;;;;4990427;28;20205;-53
2022/03/07 01:52:37;;;;;;;7.90;6.20;;;;;;;;;;4989279;28;20650;-53
2022/03/07 01:55:04;;;;;;;8.37;6.70;;;;;;;;;;4994698;28;20656;-52
2022/03/07 01:57:30;;;;;;;6.87;6.17;;;;;;;;;;4997776;28;20201;-52
2022/03/07 01:59:56;;;;;;;8.63;6.73;;;;;;;;;;4993793;28;20247;-52
2022/03/07 02:02:24;;;;;;;7.83;6.83;;;;;;;;;;4996964;28;20991;-52
2022/03/07 02:04:50;;;;;;;7.47;6.47;;;;;;;;;;4998983;28;20700;-53
2022/03/07 02:07:16;;;;;;;7.67;6.87;;;;;;;;;;4997904;28;20216;-53
2022/03/07 02:09:42;;;;;;;9.53;6.93;;;;;;;;;;4989223;28;20205;-53
2022/03/07 02:12:08;;;;;;;8.27;6.60;;;;;;;;;;4999751;28;20196;-53
2022/03/07 02:14:35;;;;;;;7.97;6.43;;;;;;;;;;5002252;28;20197;-53
2022/03/07 02:17:00;;;;;;;6.80;6.10;;;;;;;;;;4996104;28;20207;-52
2022/03/07 02:19:26;;;;;;;9.40;5.80;;;;;;;;;;4992612;28;20192;-52
2022/03/07 02:21:57;;;;;;;7.23;6.27;;;;;;;;;;4984848;28;20190;-52
2022/03/07 02:24:23;;;;;;;6.27;5.67;;;;;;;;;;4994874;28;20224;-52
2022/03/07 02:26:56;;;;;;;7.40;6.70;;;;;;;;;;4991215;28;20286;-52
2022/03/07 02:29:22;;;;;;;7.67;6.33;;;;;;;;;;4992839;28;20201;-53
2022/03/07 02:31:48;;;;;;;8.03;6.67;;;;;;;;;;4986608;28;20231;-53
2022/03/07 02:34:14;;;;;;;8.03;7.20;;;;;;;;;;4991705;28;20194;-52
2022/03/07 02:36:40;;;;;;;7.70;6.53;;;;;;;;;;4996240;28;20302;-52
2022/03/07 02:39:06;;;;;;;7.27;6.50;;;;;;;;;;4991174;28;21035;-53
2022/03/07 02:41:32;;;;;;;9.10;7.27;;;;;;;;;;4993548;28;20208;-52
2022/03/07 02:43:58;;;;;;;7.33;6.57;;;;;;;;;;4998411;28;20208;-52
2022/03/07 02:46:24;;;;;;;7.00;6.30;;;;;;;;;;4998462;28;20797;-53
2022/03/07 02:48:50;;;;;;;7.73;6.90;;;;;;;;;;4996408;28;20713;-52
2022/03/07 02:51:16;;;;;;;7.17;6.47;;;;;;;;;;4996322;28;20272;-52
2022/03/07 02:53:45;;;;;;;9.37;6.77;;;;;;;;;;4994316;28;20275;-51
2022/03/07 02:56:11;;;;;;;7.20;6.50;;;;;;;;;;4995899;28;20238;-53
2022/03/07 02:58:37;;;;;;;6.67;5.90;;;;;;;;;;4991292;28;20196;-53
2022/03/07 03:01:03;;;;;;;8.80;6.20;;;;;;;;;;4979577;28;20204;-52
2022/03/07 03:03:29;;;;;;;6.93;6.23;;;;;;;;;;4991709;28;20656;-52
2022/03/07 03:05:55;;;;;;;7.30;6.60;;;;;;;;;;4991878;28;20880;-51
2022/03/07 03:08:23;;;;;;;6.63;5.93;;;;;;;;;;4987745;28;20665;-52
2022/03/07 03:10:53;;;;;;;8.23;6.40;;;;;;;;;;4996462;28;20193;-53
2022/03/07 03:13:20;;;;;;;6.80;6.07;;;;;;;;;;4991274;28;20211;-52
2022/03/07 03:15:46;;;;;;;7.73;6.27;;;;;;;;;;4984949;28;20217;-52
2022/03/07 03:18:12;;;;;;;7.03;6.00;;;;;;;;;;4990977;28;20200;-52
2022/03/07 03:20:38;;;;;;;7.20;6.23;;;;;;;;;;4988269;28;20641;-53
2022/03/07 03:23:04;;;;;;;6.60;5.93;;;;;;;;;;4989711;28;20199;-52
2022/03/07 03:25:30;;;;;;;5.93;5.40;;;;;;;;;;4987413;28;20236;-52
2022/03/07 03:27:56;;;;;;;6.87;6.13;;;;;;;;;;4992988;28;20220;-51
2022/03/07 03:30:22;;;;;;;6.90;5.83;;;;;;;;;;4992397;28;20244;-52
2022/03/07 03:32:48;;;;;;;6.20;5.60;;;;;;;;;;4985579;28;20613;-53
2022/03/07 03:35:14;;;;;;;6.37;5.67;;;;;;;;;;4994936;28;20743;-52
2022/03/07 03:37:40;;;;;;;8.03;6.20;;;;;;;;;;4990662;28;20196;-52
2022/03/07 03:40:06;;;;;;;7.53;5.60;;;;;;;;;;4993742;28;20850;-52
2022/03/07 03:42:32;;;;;;;7.23;5.53;;;;;;;;;;4991288;28;20678;-52
2022/03/07 03:44:58;;;;;;;5.93;5.23;;;;;;;;;;4996379;28;20609;-53
2022/03/07 03:47:24;;;;;;;8.17;6.00;;;;;;;;;;4993930;28;20282;-52
2022/03/07 03:49:50;;;;;;;5.90;4.90;;;;;;;;;;4991769;28;20184;-53
2022/03/07 03:52:16;;;;;;;6.30;5.70;;;;;;;;;;4991994;28;20220;-53
2022/03/07 03:54:42;;;;;;;6.30;5.40;;;;;;;;;;5000099;28;20234;-53
2022/03/07 03:57:08;;;;;;;6.03;5.23;;;;;;;;;;5005600;28;20228;-52
2022/03/07 03:59:34;;;;;;;7.33;5.50;;;;;;;;;;4999583;28;21809;-52
2022/03/07 04:02:00;;;;;;;6.70;5.00;;;;;;;;;;4999312;28;21677;-52
2022/03/07 04:04:26;;;;;;;6.20;5.60;;;;;;;;;;5002949;28;20224;-53
2022/03/07 04:06:52;;;;;;;5.83;5.20;;;;;;;;;;5002958;28;20758;-53
2022/03/07 04:09:19;;;;;;;5.90;5.30;;;;;;;;;;5000084;28;20278;-52
2022/03/07 04:11:45;;;;;;;6.00;5.10;;;;;;;;;;5001662;28;20205;-53
2022/03/07 04:14:11;;;;;;;5.73;4.87;;;;;;;;;;5005412;28;20199;-52
2022/03/07 04:16:38;;;;;;;5.50;4.83;;;;;;;;;;5003174;28;20206;-53
2022/03/07 04:19:04;;;;;;;5.60;4.97;;;;;;;;;;4995154;28;20754;-53
2022/03/07 04:21:30;;;;;;;5.53;4.77;;;;;;;;;;4995377;28;20197;-53
2022/03/07 04:23:57;;;;;;;5.13;4.67;;;;;;;;;;4989780;28;20546;-52
2022/03/07 04:26:23;;;;;;;5.20;4.70;;;;;;;;;;4986501;28;20665;-52
2022/03/07 04:28:49;;;;;;;5.57;4.93;;;;;;;;;;4993910;28;20846;-53
2022/03/07 04:31:15;;;;;;;5.50;4.90;;;;;;;;;;4993285;28;20192;-53
2022/03/07 04:33:40;;;;;;;5.67;4.87;;;;;;;;;;4988253;28;20255;-52
2022/03/07 04:36:06;;;;;;;4.70;4.30;;;;;;;;;;4987365;28;20200;-53
2022/03/07 04:38:32;;;;;;;5.23;4.67;;;;;;;;;;4994316;28;20208;-53
2022/03/07 04:40:59;;;;;;;5.07;4.57;;;;;;;;;;4984016;28;20207;-53
2022/03/07 04:43:24;;;;;;;5.33;4.53;;;;;;;;;;4977798;28;20238;-53
2022/03/07 04:45:53;;;;;;;6.03;4.83;;;;;;;;;;4991984;28;20203;-53
2022/03/07 04:48:20;;;;;;;5.20;4.40;;;;;;;;;;4990013;28;20227;-53
2022/03/07 04:50:46;;;;;;;5.17;4.63;;;;;;;;;;4989821;28;20208;-53
2022/03/07 04:53:12;;;;;;;6.57;4.70;;;;;;;;;;4990976;28;20637;-53
2022/03/07 04:55:38;;;;;;;5.10;4.50;;;;;;;;;;4992963;28;20623;-53
2022/03/07 04:58:04;;;;;;;6.07;4.93;;;;;;;;;;4997661;28;20196;-53
2022/03/07 05:00:30;;;;;;;4.83;4.37;;;;;;;;;;4990894;28;20319;-52
2022/03/07 05:02:56;;;;;;;5.93;4.40;;;;;;;;;;4991234;28;20200;-52
2022/03/07 05:05:22;;;;;;;4.87;4.20;;;;;;;;;;4977985;28;20222;-52
2022/03/07 05:07:51;;;;;;;4.70;4.30;;;;;;;;;;4998772;28;20243;-53
2022/03/07 05:10:17;;;;;;;5.20;4.40;;;;;;;;;;4998367;28;20197;-53
2022/03/07 05:12:44;;;;;;;5.37;4.87;;;;;;;;;;4993994;28;20196;-52
2022/03/07 05:15:10;;;;;;;6.70;5.13;;;;;;;;;;4994262;28;20204;-52
2022/03/07 05:17:46;;;;;;;5.10;4.33;;;;;;;;;;4998013;28;20196;-53
2022/03/07 05:20:12;;;;;;;5.47;4.43;;;;;;;;;;5004444;28;20204;-53
2022/03/07 05:22:39;;;;;;;6.10;4.83;;;;;;;;;;4999472;28;20231;-52
2022/03/07 05:25:05;;;;;;;5.00;4.50;;;;;;;;;;4991931;28;20270;-53
2022/03/07 05:27:31;;;;;;;4.70;4.20;;;;;;;;;;4987634;28;20228;-52
2022/03/07 05:29:57;;;;;;;7.97;5.00;;;;;;;;;;4988124;28;20201;-52
2022/03/07 05:32:23;;;;;;;7.20;4.97;;;;;;;;;;4986925;28;20798;-53
2022/03/07 05:34:49;;;;;;;4.60;4.17;;;;;;;;;;4982134;28;20482;-53
2022/03/07 05:37:15;;;;;;;5.77;4.60;;;;;;;;;;4976901;28;20193;-53
2022/03/07 05:39:41;;;;;;;4.80;4.30;;;;;;;;;;4979435;28;20581;-52
2022/03/07 05:42:08;;;;;;;5.00;4.43;;;;;;;;;;4986003;28;20204;-53
2022/03/07 05:44:33;;;;;;;4.97;4.47;;;;;;;;;;4982022;28;20199;-53
2022/03/07 05:46:59;;;;;;;5.10;4.57;;;;;;;;;;4980426;28;20311;-53
2022/03/07 05:49:25;;;;;;;4.43;3.87;;;;;;;;;;4979621;28;20253;-52
2022/03/07 05:51:51;;;;;;;5.60;4.83;;;;;;;;;;4989611;28;20184;-53
2022/03/07 05:54:17;;;;;;;5.03;4.50;;;;;;;;;;4989048;28;20199;-53
2022/03/07 05:56:43;;;;;;;4.90;4.47;;;;;;;;;;4992186;28;20208;-53
2022/03/07 05:59:09;;;;;;;5.23;4.73;;;;;;;;;;4995157;28;20900;-52
2022/03/07 06:01:35;;;;;;;4.57;4.03;;;;;;;;;;4991054;28;20204;-52
2022/03/07 06:04:01;;;;;;;4.77;4.30;;;;;;;;;;4985702;28;20195;-52
2022/03/07 06:06:27;;;;;;;8.30;4.97;;;;;;;;;;4983223;28;20226;-51
2022/03/07 06:08:53;;;;;;;5.00;4.50;;;;;;;;;;4989463;28;20290;-54
2022/03/07 06:11:19;;;;;;;4.93;4.53;;;;;;;;;;4976818;28;20324;-53
2022/03/07 06:13:46;;;;;;;5.77;4.43;;;;;;;;;;4980534;28;20825;-53
2022/03/07 06:16:12;;;;;;;8.37;5.30;;;;;;;;;;4978507;28;20548;-52
2022/03/07 06:18:38;;;;;;;6.77;4.30;;;;;;;;;;4986761;28;20229;-53
2022/03/07 06:21:05;;;;;;;7.20;4.93;;;;;;;;;;4986748;28;20797;-58
2022/03/07 06:23:31;;;;;;;5.90;5.17;;;;;;;;;;4990183;28;20203;-57
2022/03/07 06:25:57;;;;;;;7.27;4.97;;;;;;;;;;4994997;28;20295;-57
2022/03/07 06:28:23;;;;;;;7.87;4.53;;;;;;;;;;4996884;28;20255;-58
2022/03/07 06:30:49;;;;;;;4.90;4.40;;;;;;;;;;4995489;28;20708;-58
2022/03/07 06:33:15;;;;;;;5.03;4.53;;;;;;;;;;4991454;28;20898;-57
2022/03/07 06:35:41;;;;;;;5.37;4.53;;;;;;;;;;5002008;28;20199;-59
2022/03/07 06:38:07;;;;;;;5.70;4.53;;;;;;;;;;5002269;28;20196;-57
2022/03/07 06:40:33;;;;;;;5.57;4.40;;;;;;;;;;4996447;28;20203;-58
2022/03/07 06:43:00;;;;;;;5.67;4.67;;;;;;;;;;4977212;28;20214;-57
2022/03/07 06:45:27;;;;;;;4.90;4.40;;;;;;;;;;4978230;28;20243;-58
2022/03/07 06:47:53;;;;;;;5.10;4.60;;;;;;;;;;4978013;28;20857;-58
2022/03/07 06:50:19;;;;;;;5.10;4.50;;;;;;;;;;4985944;28;20204;-58
2022/03/07 06:52:45;;;;;;;5.37;4.60;;;;;;;;;;4990617;28;20220;-58
2022/03/07 06:55:11;;;;;;;6.43;4.43;;;;;;;;;;4994991;28;20549;-58
2022/03/07 06:57:37;;;;;;;5.93;4.30;;;;;;;;;;4994068;28;20206;-57
2022/03/07 07:00:04;;;;;;;5.00;4.30;;;;;;;;;;4989461;28;20215;-58
2022/03/07 07:02:30;;;;;;;5.50;4.37;;;;;;;;;;4997302;28;20258;-58
2022/03/07 07:04:58;;;;;;;5.00;4.50;;;;;;;;;;4988612;28;20634;-57
2022/03/07 07:07:24;;;;;;;5.80;4.10;;;;;;;;;;4986453;28;20285;-57
2022/03/07 07:09:50;;;;;;;5.43;4.43;;;;;;;;;;4988187;28;20666;-57
2022/03/07 07:12:16;;;;;;;4.77;4.30;;;;;;;;;;4996046;28;20673;-57
2022/03/07 07:14:42;;;;;;;5.10;4.60;;;;;;;;;;4996680;28;20577;-58
2022/03/07 07:17:07;;;;;;;4.80;4.40;;;;;;;;;;5000318;28;22267;-57
2022/03/07 07:19:33;;;;;;;5.03;4.53;;;;;;;;;;4994526;28;21367;-57
2022/03/07 07:21:59;;;;;;;5.07;4.37;;;;;;;;;;4988607;28;20205;-57
2022/03/07 07:24:26;;;;;;;4.93;4.00;;;;;;;;;;4988151;28;20580;-58
2022/03/07 07:26:52;;;;;;;4.93;4.43;;;;;;;;;;4991676;28;21534;-58
2022/03/07 07:29:18;;;;;;;7.30;4.77;;;;;;;;;;4987648;28;20262;-58
2022/03/07 07:31:44;;;;;;;5.47;4.23;;;;;;;;;;4993178;28;20204;-59
2022/03/07 07:34:10;;;;;;;5.43;4.13;;;;;;;;;;4996678;28;20200;-58
2022/03/07 07:36:36;;;;;;;5.57;4.47;;;;;;;;;;4999206;28;20933;-58
2022/03/07 07:39:02;;;;;;;5.60;4.50;;;;;;;;;;4998259;28;20207;-58
2022/03/07 07:41:28;;;;;;;4.40;4.00;;;;;;;;;;4997519;28;20199;-59
2022/03/07 07:43:54;;;;;;;5.63;4.07;;;;;;;;;;4992360;28;20204;-58
2022/03/07 07:46:20;;;;;;;5.03;4.20;;;;;;;;;;4991538;28;20786;-59
2022/03/07 07:48:46;;;;;;;5.33;4.10;;;;;;;;;;4987281;28;20286;-58
2022/03/07 07:51:12;;;;;;;5.13;4.17;;;;;;;;;;4994547;28;20798;-58
2022/03/07 07:53:38;;;;;;;3.97;3.67;;;;;;;;;;4989694;28;20201;-58
2022/03/07 07:56:04;;;;;;;5.30;4.10;;;;;;;;;;4992941;28;20193;-58
2022/03/07 07:58:30;;;;;;;4.10;3.70;;;;;;;;;;4999548;28;20205;-59
2022/03/07 08:00:56;;;;;;;5.37;3.93;;;;;;;;;;4996906;28;20193;-58
2022/03/07 08:03:22;;;;;;;4.30;3.90;;;;;;;;;;5002142;28;20220;-58
2022/03/07 08:05:51;;;;;;;4.57;4.17;;;;;;;;;;4998969;28;20224;-58
2022/03/07 08:08:17;;;;;;;7.00;4.20;;;;;;;;;;4998192;28;20729;-58
2022/03/07 08:10:43;;;;;;;3.90;3.50;;;;;;;;;;5001795;28;20368;-58
2022/03/07 08:13:09;;;;;;;4.03;3.73;;;;;;;;;;4995087;28;20208;-58
2022/03/07 08:15:35;;;;;;;4.27;3.90;;;;;;;;;;4998189;28;20264;-58
2022/03/07 08:18:01;;;;;;;5.27;3.73;;;;;;;;;;4999448;28;20201;-58
2022/03/07 08:20:27;;;;;;;3.40;3.20;;;;;;;;;;4998055;28;20357;-58
2022/03/07 08:22:53;;;;;;;5.00;3.87;;;;;;;;;;4992532;28;20220;-58
2022/03/07 08:25:20;;;;;;;4.27;3.60;;;;;;;;;;4999320;28;20239;-59
2022/03/07 08:27:46;;;;;;;4.13;3.77;;;;;;;;;;5004544;28;20219;-59
2022/03/07 08:30:12;;;;;;;3.80;3.50;;;;;;;;;;5008268;28;20197;-59
2022/03/07 08:32:38;;;;;;;4.70;3.13;;;;;;;;;;5002042;28;20300;-59
2022/03/07 08:35:05;;;;;;;4.27;3.43;;;;;;;;;;5004347;28;20885;-59
2022/03/07 08:37:31;;;;;;;3.47;3.17;;;;;;;;;;5003312;28;20200;-59
2022/03/07 08:39:57;;;;;;;5.13;3.33;;;;;;;;;;5000914;28;20192;-59
2022/03/07 08:42:22;;;;;;;4.20;3.80;;;;;;;;;;4995021;28;20607;-59
2022/03/07 08:44:51;;;;;;;3.93;3.40;;;;;;;;;;5005704;28;20193;-59
2022/03/07 08:47:17;;;;;;;3.67;3.30;;;;;;;;;;4992857;28;20450;-59
2022/03/07 08:49:42;;;;;;;3.50;3.20;;;;;;;;;;4996520;28;20433;-59
2022/03/07 08:52:09;;;;;;;3.50;3.20;;;;;;;;;;4995393;28;20207;-59
2022/03/07 08:54:35;;;;;;;4.10;3.10;;;;;;;;;;4999094;28;20287;-59
2022/03/07 08:57:01;;;;;;;3.67;3.10;;;;;;;;;;4982977;28;21044;-59
2022/03/07 08:59:28;;;;;;;3.30;3.00;;;;;;;;;;4984184;28;20272;-59
2022/03/07 09:01:56;;;;;;;4.27;3.17;;;;;;;;;;4996985;28;20216;-61
2022/03/07 09:04:24;;;;;;;5.83;3.20;;;;;;;;;;4986190;28;20251;-59
2022/03/07 09:06:49;;;;;;;4.30;3.00;;;;;;;;;;4995438;28;20316;-59
2022/03/07 09:09:15;;;;;;;3.77;2.90;;;;;;;;;;4998015;28;20201;-59
2022/03/07 09:11:41;;;;;;;5.10;2.93;;;;;;;;;;4998118;28;20608;-59
2022/03/07 09:14:07;;;;;;;4.27;3.00;;;;;;;;;;4997505;28;20773;-59
2022/03/07 09:16:33;;;;;;;3.10;2.80;;;;;;;;;;4994414;28;21331;-59
2022/03/07 09:18:59;;;;;;;3.40;3.10;;;;;;;;;;4989384;28;20283;-59
2022/03/07 09:21:25;;;;;;;4.70;3.27;;;;;;;;;;4991599;28;20221;-59
2022/03/07 09:23:51;;;;;;;3.53;3.23;;;;;;;;;;4987480;28;20234;-59
2022/03/07 09:26:17;;;;;;;3.20;2.90;;;;;;;;;;4993775;28;20213;-59
2022/03/07 09:28:43;;;;;;;3.27;2.90;;;;;;;;;;4995346;28;20331;-59
2022/03/07 09:31:09;;;;;;;3.43;3.13;;;;;;;;;;5001087;28;20192;-59
2022/03/07 09:33:35;;;;;;;3.40;2.87;;;;;;;;;;4994724;28;20487;-59
2022/03/07 09:36:01;;;;;;;3.40;3.00;;;;;;;;;;4995277;28;20236;-59
2022/03/07 09:38:28;;;;;;;3.20;2.70;;;;;;;;;;4992122;28;20855;-59
2022/03/07 09:40:54;;;;;;;4.27;3.00;;;;;;;;;;4995033;28;20192;-59
2022/03/07 09:43:20;;;;;;;3.20;2.67;;;;;;;;;;4992600;28;20243;-59
2022/03/07 09:45:46;;;;;;;3.23;2.93;;;;;;;;;;4991823;28;20189;-59
2022/03/07 09:48:12;;;;;;;3.67;3.00;;;;;;;;;;4992162;28;20274;-59
2022/03/07 09:50:39;;;;;;;3.20;2.90;;;;;;;;;;4988628;28;20193;-60
2022/03/07 09:53:05;;;;;;;4.53;2.70;;;;;;;;;;4987706;28;20463;-59
2022/03/07 09:55:31;;;;;;;2.97;2.67;;;;;;;;;;4988392;28;20621;-60
2022/03/07 09:57:58;;;;;;;3.93;2.80;;;;;;;;;;4981591;28;20208;-59
2022/03/07 10:00:24;;;;;;;2.60;2.40;;;;;;;;;;4996018;28;20209;-59
2022/03/07 10:02:57;;;;;;;3.17;2.60;;;;;;;;;;4989010;28;20683;-59
2022/03/07 10:05:25;;;;;;;2.97;2.77;;;;;;;;;;4992338;28;20627;-59
2022/03/07 10:07:51;;;;;;;3.80;3.00;;;;;;;;;;5005149;28;20231;-59
2022/03/07 10:10:17;;;;;;;4.00;2.80;;;;;;;;;;5019519;28;20189;-59
2022/03/07 10:12:50;;;;;;;2.67;2.40;;;;;;;;;;5001140;28;20204;-60
2022/03/07 10:15:17;;;;;;;2.70;2.50;;;;;;;;;;4994401;28;20674;-59
2022/03/07 10:17:52;;;;;;;2.90;2.70;;;;;;;;;;4983640;28;20189;-60
2022/03/07 10:20:19;;;;;;;3.30;3.00;;;;;;;;;;4982325;28;20302;-59
2022/03/07 10:22:49;;;;;;;3.30;3.00;;;;;;;;;;4987898;28;20198;-59
2022/03/07 10:25:16;;;;;;;3.67;3.37;;;;;;;;;;4984807;28;20230;-60
2022/03/07 10:27:44;;;;;;;3.10;2.80;;;;;;;;;;4982105;28;20217;-59
2022/03/07 10:30:11;;;;;;;3.13;2.83;;;;;;;;;;4992176;28;20643;-59
2022/03/07 10:32:37;;;;;;;3.60;2.60;;;;;;;;;;4985787;28;20320;-59
2022/03/07 10:35:03;;;;;;;3.10;2.87;;;;;;;;;;4988175;28;20730;-59
2022/03/07 10:37:33;;;;;;;2.80;2.60;;;;;;;;;;4988123;28;20797;-59
2022/03/07 10:39:59;;;;;;;3.43;3.10;;;;;;;;;;4990282;28;20200;-59
2022/03/07 10:42:25;;;;;;;2.90;2.70;;;;;;;;;;4987000;28;20194;-59
2022/03/07 10:44:51;;;;;;;9.67;3.50;;;;;;;;;;4987587;28;20205;-59
2022/03/07 10:47:18;;;;;;;9.97;3.10;;;;;;;;;;4994454;28;20211;-60
2022/03/07 10:49:54;;;;;;;4.80;2.90;;;;;;;;;;4969008;28;20558;-59
2022/03/07 10:52:20;;;;;;;5.13;2.92;;;;;;;;;;4967990;28;20200;-60
2022/03/07 10:54:47;;;;;;;4.35;2.50;;;;;;;;;;4974048;28;20440;-59
2022/03/07 10:57:14;;;;;;;11.82;3.70;;;;;;;;;;4996355;28;20349;-59
2022/03/07 10:59:39;;;;;;;3.80;2.47;;;;;;;;;;4993158;28;20391;-59
2022/03/07 11:02:08;;;;;;;5.60;2.55;;;;;;;;;;4988587;28;20232;-59
2022/03/07 11:04:34;;;;;;;2.70;2.40;;;;;;;;;;4987892;28;20731;-59
2022/03/07 11:07:00;;;;;;;3.20;2.70;;;;;;;;;;4991619;28;20651;-59
2022/03/07 11:09:27;;;;;;;5.32;2.78;;;;;;;;;;4986903;28;20223;-60
2022/03/07 11:11:53;;;;;;;3.15;2.90;;;;;;;;;;4990032;28;21063;-59
2022/03/07 11:14:19;;;;;;;2.58;2.38;;;;;;;;;;4989406;28;20197;-60
2022/03/07 11:16:45;;;;;;;2.95;2.55;;;;;;;;;;4988044;28;20193;-59
2022/03/07 11:19:12;;;;;;;3.08;2.45;;;;;;;;;;4992611;28;20196;-59
2022/03/07 11:21:39;;;;;;;3.63;2.53;;;;;;;;;;4992554;28;20579;-59
2022/03/07 11:24:05;;;;;;;3.33;2.28;;;;;;;;;;4990956;28;20201;-61
2022/03/07 11:26:31;;;;;;;3.90;2.80;;;;;;;;;;4995744;28;20795;-60
2022/03/07 11:28:58;;;;;;;3.58;2.28;;;;;;;;;;4994744;28;20205;-59
2022/03/07 11:31:26;;;;;;;2.88;2.20;;;;;;;;;;4996283;28;20244;-60
2022/03/07 11:33:52;;;;;;;2.60;2.40;;;;;;;;;;4992719;28;20606;-60
2022/03/07 11:36:19;;;;;;;2.50;2.30;;;;;;;;;;4996131;28;20193;-59
2022/03/07 11:38:52;;;;;;;2.60;2.40;;;;;;;;;;4998988;28;20589;-59
2022/03/07 11:41:22;;;;;;;3.13;2.38;;;;;;;;;;4998368;28;20203;-59
2022/03/07 11:43:48;;;;;;;2.35;1.98;;;;;;;;;;4988418;28;20739;-59
2022/03/07 11:46:21;;;;;;;4.22;2.83;;;;;;;;;;4990886;28;20193;-60
2022/03/07 11:48:47;;;;;;;3.10;2.80;;;;;;;;;;4998822;28;20717;-60
2022/03/07 11:51:31;;;;;;;3.03;2.60;;;;;;;;;;4994914;28;20320;-60
2022/03/07 11:53:58;;;;;;;5.38;2.80;;;;;;;;;;4992433;28;20212;-60
2022/03/07 11:56:31;;;;;;;4.60;2.92;;;;;;;;;;4990206;28;20328;-61
2022/03/07 11:58:57;;;;;;;2.75;2.55;;;;;;;;;;4997220;28;20197;-59
2022/03/07 12:01:24;;;;;;;4.50;2.83;;;;;;;;;;4984918;28;20188;-59
2022/03/07 12:03:50;;;;;;;3.90;2.42;;;;;;;;;;4997764;28;20319;-61
2022/03/07 12:06:17;;;;;;;3.15;2.30;;;;;;;;;;4996121;28;20216;-59
2022/03/07 12:08:43;;;;;;;2.70;2.50;;;;;;;;;;4992598;28;20223;-58
2022/03/07 12:11:10;;;;;;;4.38;2.50;;;;;;;;;;5001439;28;20432;-60
2022/03/07 12:13:45;;;;;;;3.42;3.10;;;;;;;;;;4979180;28;20185;-59
2022/03/07 12:16:12;;;;;;;7.72;2.65;;;;;;;;;;4994328;28;20196;-59
2022/03/07 12:18:38;;;;;;;4.35;2.22;;;;;;;;;;4985177;28;20193;-59
2022/03/07 12:21:04;;;;;;;3.08;2.40;;;;;;;;;;4982425;28;20200;-59
2022/03/07 12:23:31;;;;;;;6.30;2.15;;;;;;;;;;4986542;28;20205;-59
2022/03/07 12:26:00;;;;;;;5.88;2.38;;;;;;;;;;4986787;28;20240;-59
2022/03/07 12:28:33;;;;;;;2.22;2.00;;;;;;;;;;4982953;28;20217;-59
2022/03/07 12:30:59;;;;;;;4.63;2.17;;;;;;;;;;4985917;28;20674;-59
2022/03/07 12:33:25;;;;;;;2.42;1.90;;;;;;;;;;4987278;28;20204;-59
2022/03/07 12:36:01;;;;;;;1.95;1.85;;;;;;;;;;4988785;28;20609;-59
2022/03/07 12:38:27;;;;;;;4.10;2.10;;;;;;;;;;4985887;28;20277;-59
2022/03/07 12:40:54;;;;;;;2.90;2.30;;;;;;;;;;4983051;28;20611;-59
2022/03/07 12:43:20;;;;;;;2.28;2.13;;;;;;;;;;4988300;28;20584;-60
2022/03/07 12:45:46;;;;;;;2.42;1.95;;;;;;;;;;4999968;28;20193;-59
2022/03/07 12:48:13;;;;;;;2.67;2.17;;;;;;;;;;4990649;28;20227;-60
2022/03/07 12:50:38;;;;;;;2.60;1.90;;;;;;;;;;4991230;28;21609;-60
2022/03/07 12:53:04;;;;;;;1.90;1.80;;;;;;;;;;4988695;28;20975;-60
2022/03/07 12:55:30;;;;;;;2.75;2.10;;;;;;;;;;4989272;28;20228;-60
2022/03/07 12:57:57;;;;;;;2.17;1.98;;;;;;;;;;4984409;28;20371;-59
2022/03/07 13:00:23;;;;;;;3.13;2.05;;;;;;;;;;4995037;28;20188;-59
2022/03/07 13:02:53;;;;;;;2.80;2.17;;;;;;;;;;4982952;28;20224;-59
2022/03/07 13:05:21;;;;;;;3.15;1.90;;;;;;;;;;4991384;28;20255;-59
2022/03/07 13:07:54;;;;;;;3.33;1.90;;;;;;;;;;4982314;28;20664;-59
2022/03/07 13:10:22;;;;;;;2.15;1.98;;;;;;;;;;4998547;28;20212;-60
2022/03/07 13:12:48;;;;;;;2.25;1.80;;;;;;;;;;4996099;28;20236;-60
2022/03/07 13:15:14;;;;;;;1.92;1.80;;;;;;;;;;4996970;28;20190;-60
2022/03/07 13:17:40;;;;;;;5.18;1.92;;;;;;;;;;4997821;28;20193;-60
2022/03/07 13:20:10;;;;;;;2.47;2.28;;;;;;;;;;4991660;28;22045;-60
2022/03/07 13:22:36;;;;;;;2.20;2.00;;;;;;;;;;4987925;28;20666;-60
2022/03/07 13:25:04;;;;;;;2.20;1.88;;;;;;;;;;4991499;28;20302;-59
2022/03/07 13:27:30;;;;;;;2.20;1.77;;;;;;;;;;4989795;28;21265;-59
2022/03/07 13:30:06;;;;;;;2.28;1.80;;;;;;;;;;4992292;28;20239;-60
2022/03/07 13:32:33;;;;;;;2.08;1.92;;;;;;;;;;4986556;28;20195;-60
2022/03/07 13:34:59;;;;;;;3.10;1.90;;;;;;;;;;4989199;28;20397;-60
2022/03/07 13:37:27;;;;;;;3.55;1.95;;;;;;;;;;4983769;28;20204;-58
2022/03/07 13:39:59;;;;;;;2.97;1.88;;;;;;;;;;4982344;28;20209;-58
2022/03/07 13:42:25;;;;;;;2.38;2.10;;;;;;;;;;4992103;28;20283;-58
2022/03/07 13:44:55;;;;;;;4.05;1.90;;;;;;;;;;4987993;28;20261;-58
2022/03/07 13:47:25;;;;;;;1.85;1.75;;;;;;;;;;4979892;28;20214;-58
2022/03/07 13:49:52;;;;;;;21.10;4.03;;;;;;;;;;4989830;28;20193;-58
2022/03/07 13:52:18;;;;;;;15.50;2.92;;;;;;;;;;4988265;28;20205;-58
2022/03/07 13:54:44;;;;;;;7.18;2.20;;;;;;;;;;4988789;28;20246;-59
2022/03/07 13:57:10;;;;;;;3.90;2.08;;;;;;;;;;4991195;28;20207;-58
2022/03/07 13:59:36;;;;;;;4.25;1.92;;;;;;;;;;4995470;28;20204;-60
2022/03/07 14:02:15;;;;;;;6.13;2.22;;;;;;;;;;4990050;28;20204;-59
2022/03/07 14:05:00;;;;;;;4.28;2.17;;;;;;;;;;4981699;28;20767;-58
2022/03/07 14:07:27;;;;;;;7.65;2.70;;;;;;;;;;4972993;28;20298;-57
2022/03/07 14:09:53;;;;;;;2.85;1.80;;;;;;;;;;4987764;28;20189;-58
2022/03/07 14:12:29;;;;;;;2.47;2.05;;;;;;;;;;4992827;28;20678;-58
2022/03/07 14:14:59;;;;;;;4.55;1.80;;;;;;;;;;4988402;28;20181;-57
2022/03/07 14:17:25;;;;;;;3.03;2.00;;;;;;;;;;4986694;28;20212;-58
2022/03/07 14:19:51;;;;;;;5.25;2.05;;;;;;;;;;4988198;28;20197;-59
2022/03/07 14:22:19;;;;;;;5.38;2.30;;;;;;;;;;4988183;28;20215;-60
2022/03/07 14:24:48;;;;;;;5.22;2.00;;;;;;;;;;4981418;28;20241;-58
2022/03/07 14:27:15;;;;;;;2.30;2.10;;;;;;;;;;4991974;28;20732;-58
2022/03/07 14:29:43;;;;;;;2.87;2.13;;;;;;;;;;4986877;28;20248;-58
2022/03/07 14:32:09;;;;;;;2.53;2.33;;;;;;;;;;4983269;28;20207;-57
2022/03/07 14:34:35;;;;;;;3.63;2.37;;;;;;;;;;4990849;28;20194;-59
2022/03/07 14:37:01;;;;;;;2.80;2.33;;;;;;;;;;4993270;28;20567;-58
2022/03/07 14:39:27;;;;;;;3.33;2.57;;;;;;;;;;4989141;28;20273;-54